createdAt,value
2022-09-25T00:02:59.295Z,0.75
2022-09-25T00:08:21.143Z,0.82
2022-09-25T00:13:44.566Z,0.80
2022-09-25T00:19:25.082Z,0.60
2022-09-25T00:24:47.036Z,0.60
2022-09-25T00:30:10.889Z,0.77
2022-09-25T00:35:33.835Z,0.82
2022-09-25T00:40:56.079Z,1.00
2022-09-25T00:46:27.866Z,0.70
2022-09-25T00:51:55.633Z,0.70
2022-09-25T00:57:26.876Z,0.70
2022-09-25T01:02:54.021Z,0.60
2022-09-25T01:08:20.424Z,0.60
2022-09-25T01:13:42.390Z,0.70
2022-09-25T01:19:29.164Z,0.70
2022-09-25T01:24:53.562Z,0.65
2022-09-25T01:30:18.858Z,0.60
2022-09-25T01:35:52.409Z,0.52
2022-09-25T01:41:30.561Z,0.77
2022-09-25T01:46:54.111Z,0.63
2022-09-25T01:52:21.079Z,0.65
2022-09-25T01:57:53.907Z,0.80
2022-09-25T02:03:25.811Z,0.80
2022-09-25T02:08:54.143Z,0.52
2022-09-25T02:14:21.968Z,0.57
2022-09-25T02:20:06.483Z,0.80
2022-09-25T02:25:38.592Z,0.70
2022-09-25T02:31:02.151Z,0.70
2022-09-25T02:36:24.290Z,0.55
2022-09-25T02:41:48.738Z,0.60
2022-09-25T02:47:34.833Z,0.43
2022-09-25T02:53:08.353Z,0.43
2022-09-25T02:58:37.174Z,0.57
2022-09-25T03:04:00.616Z,0.57
2022-09-25T03:09:23.661Z,0.63
2022-09-25T03:14:45.431Z,0.50
2022-09-25T03:20:10.175Z,0.55
2022-09-25T03:25:31.853Z,0.47
2022-09-25T03:31:01.309Z,0.60
2022-09-25T03:36:25.165Z,0.68
2022-09-25T03:41:48.007Z,0.52
2022-09-25T03:47:09.734Z,0.55
2022-09-25T03:52:31.460Z,0.80
2022-09-25T03:57:53.173Z,0.50
2022-09-25T04:03:18.379Z,0.77
2022-09-25T04:08:40.255Z,0.70
2022-09-25T04:14:02.281Z,0.40
2022-09-25T04:19:23.977Z,0.38
2022-09-25T04:24:51.314Z,0.60
2022-09-25T04:30:13.398Z,0.60
2022-09-25T04:35:35.071Z,0.47
2022-09-25T04:40:58.068Z,0.57
2022-09-25T04:46:22.317Z,0.65
2022-09-25T04:51:44.456Z,0.50
2022-09-25T04:57:06.172Z,0.45
2022-09-25T05:02:28.571Z,0.60
2022-09-25T05:07:54.364Z,0.60
2022-09-25T05:13:16.086Z,0.45
2022-09-25T05:18:37.780Z,0.60
2022-09-25T05:23:59.774Z,0.47
2022-09-25T05:29:21.450Z,0.80
2022-09-25T05:34:43.083Z,0.60
2022-09-25T05:40:05.222Z,0.47
2022-09-25T05:45:26.864Z,0.40
2022-09-25T05:50:55.546Z,0.63
2022-09-25T05:56:17.491Z,0.50
2022-09-25T06:01:39.341Z,0.22
2022-09-25T06:07:02.734Z,0.15
2022-09-25T06:12:25.022Z,0.25
2022-09-25T06:17:46.654Z,0.50
2022-09-25T06:23:08.291Z,0.30
2022-09-25T06:28:31.185Z,0.30
2022-09-25T06:33:52.966Z,0.30
2022-09-25T06:39:14.695Z,0.30
2022-09-25T06:44:36.712Z,0.32
2022-09-25T06:49:58.386Z,0.50
2022-09-25T06:55:20.006Z,0.40
2022-09-25T07:00:45.846Z,0.45
2022-09-25T07:06:09.110Z,0.20
2022-09-25T07:11:31.555Z,0.57
2022-09-25T07:16:53.227Z,0.47
2022-09-25T07:22:14.878Z,0.57
2022-09-25T07:27:37.056Z,0.50
2022-09-25T07:33:00.285Z,0.40
2022-09-25T07:38:22.881Z,0.50
2022-09-25T07:43:45.283Z,0.50
2022-09-25T07:49:07.246Z,0.45
2022-09-25T07:54:28.907Z,0.38
2022-09-25T07:59:50.617Z,1.02
2022-09-25T08:05:12.526Z,0.80
2022-09-25T08:10:34.200Z,0.60
2022-09-25T08:15:56.697Z,0.57
2022-09-25T08:21:20.579Z,0.63
2022-09-25T08:26:42.247Z,0.70
2022-09-25T08:32:03.911Z,0.70
2022-09-25T08:37:25.569Z,1.00
2022-09-25T08:42:52.572Z,0.90
2022-09-25T08:48:41.545Z,0.70
2022-09-25T08:54:04.843Z,0.82
2022-09-25T08:59:33.699Z,0.70
2022-09-25T09:04:58.042Z,0.70
2022-09-25T09:10:34.201Z,1.02
2022-09-25T09:16:04.286Z,1.38
2022-09-25T09:21:45.932Z,1.08
2022-09-25T09:27:33.542Z,0.80
2022-09-25T09:33:28.144Z,0.90
2022-09-25T09:39:20.258Z,0.77
2022-09-25T09:44:50.248Z,0.70
2022-09-25T09:50:12.000Z,0.70
2022-09-25T09:55:45.296Z,0.70
2022-09-25T10:01:28.935Z,0.85
2022-09-25T10:07:14.141Z,0.70
2022-09-25T10:12:37.704Z,0.70
2022-09-25T10:18:02.147Z,0.73
2022-09-25T10:23:47.028Z,0.85
2022-09-25T10:29:40.881Z,2.17
2022-09-25T10:35:03.727Z,2.15
2022-09-25T10:40:28.205Z,2.30
2022-09-25T10:46:13.156Z,2.40
2022-09-25T10:51:34.921Z,2.30
2022-09-25T10:56:56.812Z,1.55
2022-09-25T11:02:40.373Z,1.65
2022-09-25T11:08:05.662Z,1.50
2022-09-25T11:13:30.660Z,1.60
2022-09-25T11:19:07.696Z,1.30
2022-09-25T11:24:44.431Z,1.17
2022-09-25T11:30:20.245Z,1.52
2022-09-25T11:35:56.855Z,1.25
2022-09-25T11:41:41.583Z,1.30
2022-09-25T11:47:35.087Z,1.00
2022-09-25T11:53:06.304Z,1.40
2022-09-25T11:58:46.295Z,1.23
2022-09-25T12:04:07.920Z,0.98
2022-09-25T12:09:52.973Z,0.80
2022-09-25T12:15:36.668Z,1.10
2022-09-25T12:21:06.812Z,0.60
2022-09-25T12:26:52.712Z,0.65
2022-09-25T12:32:23.098Z,1.03
2022-09-25T12:38:11.998Z,0.60
2022-09-25T12:43:41.377Z,0.80
2022-09-25T12:49:27.027Z,0.47
2022-09-25T12:54:58.324Z,1.63
2022-09-25T13:00:23.714Z,0.88
2022-09-25T13:06:06.162Z,1.20
2022-09-25T13:11:39.198Z,0.90
2022-09-25T13:17:01.431Z,0.90
2022-09-25T13:22:25.309Z,0.90
2022-09-25T13:27:47.577Z,0.60
2022-09-25T13:33:20.272Z,0.60
2022-09-25T13:39:04.802Z,1.00
2022-09-25T13:44:41.282Z,0.77
2022-09-25T13:50:17.663Z,0.65
2022-09-25T13:55:48.228Z,0.70
2022-09-25T14:01:33.478Z,0.60
2022-09-25T14:07:04.922Z,0.43
2022-09-25T14:12:42.431Z,0.47
2022-09-25T14:18:09.072Z,0.68
2022-09-25T14:23:33.512Z,0.68
2022-09-25T14:28:57.385Z,0.60
2022-09-25T14:34:30.787Z,0.40
2022-09-25T14:40:22.398Z,0.52
2022-09-25T14:46:01.496Z,0.40
2022-09-25T14:51:27.328Z,0.68
2022-09-25T14:56:55.050Z,0.35
2022-09-25T15:02:26.631Z,0.50
2022-09-25T15:07:48.359Z,0.40
2022-09-25T15:13:20.960Z,0.52
2022-09-25T15:18:56.321Z,0.50
2022-09-25T15:24:24.630Z,0.30
2022-09-25T15:29:48.342Z,0.20
2022-09-25T15:35:17.495Z,0.20
2022-09-25T15:40:40.413Z,0.38
2022-09-25T15:46:07.900Z,0.40
2022-09-25T15:51:33.698Z,0.68
2022-09-25T15:56:57.442Z,0.60
2022-09-25T16:02:40.038Z,0.60
2022-09-25T16:08:24.219Z,0.75
2022-09-25T16:13:49.306Z,0.55
2022-09-25T16:19:41.093Z,0.57
2022-09-25T16:25:02.949Z,0.68
2022-09-25T16:30:24.713Z,0.55
2022-09-25T16:36:10.253Z,0.57
2022-09-25T16:41:30.546Z,0.55
2022-09-25T16:46:54.958Z,0.32
2022-09-25T16:52:20.993Z,0.60
2022-09-25T16:57:46.145Z,0.85
2022-09-25T17:03:12.199Z,6.63
2022-09-25T17:08:33.915Z,7.70
2022-09-25T17:13:56.398Z,4.43
2022-09-25T17:19:19.315Z,6.60
2022-09-25T17:24:41.108Z,6.10
2022-09-25T17:30:02.793Z,5.10
2022-09-25T17:35:46.402Z,4.57
2022-09-25T17:41:20.848Z,4.25
2022-09-25T17:46:43.050Z,6.50
2022-09-25T17:52:05.264Z,5.60
2022-09-25T17:57:27.848Z,7.00
2022-09-25T18:02:49.630Z,10.32
2022-09-25T18:08:12.546Z,8.88
2022-09-25T18:13:37.868Z,8.13
2022-09-25T18:19:21.906Z,7.13
2022-09-25T18:24:43.588Z,6.45
2022-09-25T18:30:05.892Z,5.80
2022-09-25T18:35:27.577Z,5.40
2022-09-25T18:40:49.357Z,5.30
2022-09-25T18:46:11.148Z,7.15
2022-09-25T18:51:34.211Z,21.38
2022-09-25T18:56:58.646Z,17.80
2022-09-25T19:02:25.090Z,13.35
2022-09-25T19:07:46.840Z,13.88
2022-09-25T19:13:08.575Z,13.55
2022-09-25T19:18:30.212Z,14.93
2022-09-25T19:23:52.233Z,16.15
2022-09-25T19:29:14.072Z,14.57
2022-09-25T19:34:36.110Z,16.20
2022-09-25T19:40:16.768Z,16.33
2022-09-25T19:45:38.508Z,14.73
2022-09-25T19:51:06.273Z,16.92
2022-09-25T19:56:27.905Z,18.70
2022-09-25T20:01:49.597Z,17.67
2022-09-25T20:07:15.611Z,17.58
2022-09-25T20:12:37.229Z,18.17
2022-09-25T20:17:59.607Z,18.42
2022-09-25T20:23:21.253Z,21.48
2022-09-25T20:28:43.795Z,21.88
2022-09-25T20:34:06.344Z,21.90
2022-09-25T20:39:28.235Z,21.17
2022-09-25T20:44:50.124Z,20.50
2022-09-25T20:50:11.865Z,20.33
2022-09-25T20:55:38.110Z,26.83
2022-09-25T21:01:02.586Z,25.00
2022-09-25T21:06:27.090Z,24.65
2022-09-25T21:11:49.538Z,22.52
2022-09-25T21:17:11.481Z,22.77
2022-09-25T21:22:33.250Z,23.40
2022-09-25T21:27:55.498Z,21.30
2022-09-25T21:33:17.193Z,20.77
2022-09-25T21:38:39.474Z,18.35
2022-09-25T21:44:07.461Z,19.20
2022-09-25T21:49:29.633Z,17.90
2022-09-25T21:54:51.388Z,17.40
2022-09-25T22:00:13.948Z,16.20
2022-09-25T22:05:36.316Z,16.05
2022-09-25T22:10:59.186Z,15.02
2022-09-25T22:16:26.842Z,14.88
2022-09-25T22:21:50.299Z,14.27
2022-09-25T22:27:11.969Z,13.80
2022-09-25T22:32:33.638Z,12.95
2022-09-25T22:37:55.294Z,12.52
2022-09-25T22:43:17.010Z,11.35
2022-09-25T22:48:39.653Z,12.00
2022-09-25T22:54:01.335Z,11.43
2022-09-25T22:59:23.031Z,11.30
2022-09-25T23:04:46.282Z,11.77
2022-09-25T23:10:08.585Z,11.10
2022-09-25T23:15:30.452Z,10.98
2022-09-25T23:20:54.189Z,10.05
2022-09-25T23:26:15.899Z,11.35
2022-09-25T23:31:37.561Z,10.50
2022-09-25T23:36:59.209Z,10.77
2022-09-25T23:42:22.291Z,10.65
2022-09-25T23:47:44.129Z,10.10
2022-09-25T23:53:06.121Z,10.02
2022-09-25T23:58:28.349Z,10.02
